createdAt,value
2022-11-13T00:02:40.977Z,45.45
2022-11-13T00:08:03.825Z,39.80
2022-11-13T00:13:30.143Z,39.55
2022-11-13T00:18:51.896Z,39.35
2022-11-13T00:24:14.799Z,40.30
2022-11-13T00:29:36.312Z,44.72
2022-11-13T00:34:58.014Z,38.53
2022-11-13T00:40:21.071Z,39.47
2022-11-13T00:45:42.597Z,40.50
2022-11-13T00:51:04.798Z,39.47
2022-11-13T00:56:28.044Z,39.33
2022-11-13T01:01:49.702Z,39.97
2022-11-13T01:07:11.307Z,38.75
2022-11-13T01:12:34.233Z,41.67
2022-11-13T01:17:55.950Z,41.45
2022-11-13T01:23:17.462Z,41.40
2022-11-13T01:28:41.290Z,40.70
2022-11-13T01:34:03.118Z,40.28
2022-11-13T01:39:24.732Z,40.72
2022-11-13T01:44:53.414Z,40.33
2022-11-13T01:50:16.213Z,39.90
2022-11-13T01:55:37.737Z,39.47
2022-11-13T02:01:00.589Z,41.45
2022-11-13T02:06:22.838Z,41.03
2022-11-13T02:11:44.806Z,40.95
2022-11-13T02:17:12.078Z,40.33
2022-11-13T02:22:37.175Z,41.00
2022-11-13T02:28:00.320Z,39.83
2022-11-13T02:33:25.107Z,40.20
2022-11-13T02:38:47.650Z,38.75
2022-11-13T02:44:10.343Z,39.38
2022-11-13T02:49:31.606Z,38.42
2022-11-13T02:54:53.242Z,39.22
2022-11-13T03:00:16.896Z,39.95
2022-11-13T03:05:38.159Z,38.15
2022-11-13T03:10:59.885Z,38.58
2022-11-13T03:16:23.134Z,38.42
2022-11-13T03:21:44.530Z,39.20
2022-11-13T03:27:06.252Z,39.03
2022-11-13T03:32:29.468Z,38.80
2022-11-13T03:37:51.449Z,39.60
2022-11-13T03:43:12.778Z,40.50
2022-11-13T03:48:35.971Z,40.10
2022-11-13T03:53:57.770Z,39.33
2022-11-13T03:59:19.146Z,38.78
2022-11-13T04:04:42.026Z,39.13
2022-11-13T04:10:03.943Z,38.58
2022-11-13T04:15:25.344Z,39.03
2022-11-13T04:20:47.981Z,39.05
2022-11-13T04:26:09.538Z,39.35
2022-11-13T04:31:31.083Z,38.50
2022-11-13T04:36:54.071Z,39.58
2022-11-13T04:42:33.258Z,39.35
2022-11-13T04:47:55.028Z,38.33
2022-11-13T04:53:17.874Z,39.25
2022-11-13T04:58:39.497Z,38.97
2022-11-13T05:04:01.185Z,38.78
2022-11-13T05:09:24.165Z,38.60
2022-11-13T05:14:45.817Z,39.90
2022-11-13T05:20:08.626Z,38.42
2022-11-13T05:25:32.321Z,38.03
2022-11-13T05:30:53.572Z,37.85
2022-11-13T05:36:16.764Z,39.28
2022-11-13T05:41:39.676Z,39.85
2022-11-13T05:47:01.512Z,39.90
2022-11-13T05:52:23.511Z,39.05
2022-11-13T05:57:46.707Z,38.72
2022-11-13T06:03:08.376Z,40.35
2022-11-13T06:08:30.727Z,39.55
2022-11-13T06:13:55.800Z,40.05
2022-11-13T06:19:17.539Z,38.45
2022-11-13T06:24:39.491Z,38.30
2022-11-13T06:30:03.332Z,38.72
2022-11-13T06:35:25.077Z,39.10
2022-11-13T06:40:46.606Z,38.40
2022-11-13T06:46:13.065Z,37.78
2022-11-13T06:51:34.711Z,38.35
2022-11-13T06:56:56.566Z,37.88
2022-11-13T07:02:19.891Z,38.50
2022-11-13T07:07:41.482Z,38.60
2022-11-13T07:13:03.321Z,38.70
2022-11-13T07:18:26.692Z,39.20
2022-11-13T07:23:50.181Z,37.92
2022-11-13T07:29:12.960Z,39.80
2022-11-13T07:34:36.064Z,38.45
2022-11-13T07:39:59.737Z,39.75
2022-11-13T07:45:21.665Z,39.40
2022-11-13T07:50:44.789Z,38.80
2022-11-13T07:56:07.521Z,38.55
2022-11-13T08:01:29.173Z,53.33
2022-11-13T08:06:52.339Z,41.47
2022-11-13T08:12:14.254Z,44.95
2022-11-13T08:17:35.822Z,40.05
2022-11-13T08:23:00.326Z,41.88
2022-11-13T08:28:22.212Z,42.28
2022-11-13T08:33:44.783Z,42.95
2022-11-13T08:39:07.832Z,41.42
2022-11-13T08:44:29.561Z,43.40
2022-11-13T08:50:04.811Z,42.05
2022-11-13T08:55:28.562Z,40.10
2022-11-13T09:00:50.402Z,40.08
2022-11-13T09:06:12.190Z,41.47
2022-11-13T09:11:35.519Z,43.45
2022-11-13T09:16:57.012Z,40.67
2022-11-13T09:22:18.880Z,41.28
2022-11-13T09:27:42.068Z,42.55
2022-11-13T09:33:03.993Z,41.58
2022-11-13T09:38:25.786Z,42.13
2022-11-13T09:43:59.295Z,40.40
2022-11-13T09:49:28.167Z,42.13
2022-11-13T09:54:50.109Z,42.78
2022-11-13T10:00:17.256Z,41.13
2022-11-13T10:05:49.000Z,41.95
2022-11-13T10:11:15.664Z,42.85
2022-11-13T10:16:44.781Z,42.50
2022-11-13T10:22:32.130Z,41.92
2022-11-13T10:27:57.369Z,47.97
2022-11-13T10:33:22.902Z,41.58
2022-11-13T10:38:50.161Z,42.05
2022-11-13T10:44:24.384Z,40.72
2022-11-13T10:49:47.424Z,42.75
2022-11-13T10:55:18.514Z,41.50
2022-11-13T11:00:44.321Z,44.00
2022-11-13T11:06:07.683Z,41.78
2022-11-13T11:11:46.870Z,42.40
2022-11-13T11:17:10.485Z,45.80
2022-11-13T11:22:38.041Z,45.00
2022-11-13T11:28:05.944Z,42.65
2022-11-13T11:33:34.790Z,46.67
2022-11-13T11:39:03.524Z,45.88
2022-11-13T11:44:32.443Z,42.75
2022-11-13T11:49:54.394Z,45.30
2022-11-13T11:55:32.367Z,46.22
2022-11-13T12:01:01.694Z,44.55
2022-11-13T12:06:35.243Z,44.28
2022-11-13T12:12:11.076Z,46.38
2022-11-13T12:17:45.936Z,44.95
2022-11-13T12:23:19.471Z,45.40
2022-11-13T12:28:49.455Z,47.35
2022-11-13T12:34:17.860Z,47.72
2022-11-13T12:39:47.573Z,50.28
2022-11-13T12:45:18.140Z,46.28
2022-11-13T12:50:39.987Z,44.78
2022-11-13T12:56:04.155Z,45.78
2022-11-13T13:01:29.571Z,45.45
2022-11-13T13:07:06.528Z,46.38
2022-11-13T13:12:40.800Z,43.15
2022-11-13T13:18:12.007Z,44.85
2022-11-13T13:23:36.037Z,46.00
2022-11-13T13:29:02.869Z,45.17
2022-11-13T13:34:38.361Z,44.35
2022-11-13T13:40:12.322Z,45.50
2022-11-13T13:45:48.592Z,45.53
2022-11-13T13:51:23.188Z,43.80
2022-11-13T13:56:45.172Z,43.15
2022-11-13T14:02:17.908Z,42.60
2022-11-13T14:07:48.494Z,48.22
2022-11-13T14:26:59.789Z,45.50
2022-11-13T14:32:24.064Z,46.28
2022-11-13T14:37:47.132Z,45.05
2022-11-13T14:43:18.182Z,47.40
2022-11-13T14:48:39.594Z,48.47
2022-11-13T14:54:07.489Z,45.35
2022-11-13T14:59:45.644Z,48.97
2022-11-13T15:05:07.003Z,47.75
2022-11-13T15:10:29.969Z,46.47
2022-11-13T15:15:53.078Z,68.32
2022-11-13T15:21:14.906Z,49.72
2022-11-13T15:26:36.448Z,48.30
2022-11-13T15:31:59.437Z,47.42
2022-11-13T15:37:21.155Z,45.53
2022-11-13T15:42:44.009Z,50.00
2022-11-13T15:48:09.902Z,49.45
2022-11-13T15:53:31.421Z,47.50
2022-11-13T15:58:53.506Z,47.13
2022-11-13T16:04:16.542Z,51.88
2022-11-13T16:09:38.117Z,50.50
2022-11-13T16:15:07.635Z,44.38
2022-11-13T16:20:39.449Z,45.47
2022-11-13T16:26:04.463Z,49.42
2022-11-13T16:31:26.216Z,51.80
2022-11-13T16:36:51.642Z,47.88
2022-11-13T16:42:14.300Z,46.95
2022-11-13T16:47:36.484Z,49.03
2022-11-13T16:52:59.172Z,45.67
2022-11-13T16:58:20.648Z,45.35
2022-11-13T17:03:42.150Z,45.83
2022-11-13T17:09:05.585Z,45.72
2022-11-13T17:14:26.953Z,43.95
2022-11-13T17:19:48.630Z,46.80
2022-11-13T17:25:11.849Z,46.47
2022-11-13T17:30:34.050Z,43.45
2022-11-13T17:35:56.221Z,41.63
2022-11-13T17:41:20.863Z,41.83
2022-11-13T17:46:42.433Z,43.75
2022-11-13T17:52:04.013Z,43.63
2022-11-13T17:57:27.336Z,41.67
2022-11-13T18:02:49.049Z,42.42
2022-11-13T18:08:12.430Z,43.42
2022-11-13T18:13:43.547Z,43.00
2022-11-13T18:19:06.966Z,45.30
2022-11-13T18:24:28.804Z,43.85
2022-11-13T18:29:52.837Z,41.70
2022-11-13T18:35:17.834Z,42.95
2022-11-13T18:40:41.685Z,40.85
2022-11-13T18:46:06.533Z,41.70
2022-11-13T18:51:29.552Z,42.17
2022-11-13T18:56:51.136Z,40.15
2022-11-13T19:02:14.291Z,40.83
2022-11-13T19:07:44.877Z,42.83
2022-11-13T19:13:06.634Z,41.30
2022-11-13T19:18:41.156Z,39.65
2022-11-13T19:24:03.443Z,41.25
2022-11-13T19:29:25.019Z,41.45
2022-11-13T19:34:50.686Z,41.92
2022-11-13T19:40:13.974Z,41.00
2022-11-13T19:45:36.989Z,41.15
2022-11-13T19:51:04.667Z,40.38
2022-11-13T19:56:28.335Z,40.72
2022-11-13T20:01:49.874Z,40.28
2022-11-13T20:07:12.812Z,43.00
2022-11-13T20:12:34.397Z,42.60
2022-11-13T20:17:56.257Z,40.50
2022-11-13T20:23:18.898Z,41.08
2022-11-13T20:28:47.492Z,40.05
2022-11-13T20:34:10.226Z,40.70
2022-11-13T20:39:33.499Z,38.90
2022-11-13T20:44:58.508Z,40.45
2022-11-13T20:50:22.363Z,39.50
2022-11-13T20:55:45.051Z,40.38
2022-11-13T21:01:08.692Z,39.33
2022-11-13T21:06:30.262Z,40.08
2022-11-13T21:11:53.295Z,39.63
2022-11-13T21:17:14.880Z,40.35
2022-11-13T21:22:37.587Z,40.75
2022-11-13T21:28:00.699Z,40.97
2022-11-13T21:33:22.075Z,39.47
2022-11-13T21:38:44.262Z,40.22
2022-11-13T21:44:15.172Z,40.13
2022-11-13T21:49:36.866Z,39.83
2022-11-13T21:55:05.962Z,40.20
2022-11-13T22:00:28.704Z,41.22
2022-11-13T22:05:50.025Z,39.00
2022-11-13T22:11:12.157Z,40.25
2022-11-13T22:16:38.901Z,39.45
2022-11-13T22:22:00.566Z,39.67
2022-11-13T22:27:22.188Z,40.40
2022-11-13T22:32:45.068Z,39.95
2022-11-13T22:38:06.631Z,40.22
2022-11-13T22:43:28.165Z,39.80
2022-11-13T22:49:08.241Z,40.33
2022-11-13T22:54:29.626Z,39.60
2022-11-13T22:59:51.204Z,39.35
2022-11-13T23:05:14.190Z,39.75
2022-11-13T23:10:35.581Z,40.58
2022-11-13T23:15:57.102Z,40.00
2022-11-13T23:21:20.409Z,38.97
2022-11-13T23:26:41.833Z,40.05
2022-11-13T23:32:03.377Z,40.10
2022-11-13T23:37:26.325Z,41.22
2022-11-13T23:42:55.221Z,40.83
2022-11-13T23:48:17.321Z,40.70
2022-11-13T23:53:40.278Z,40.00
2022-11-13T23:59:01.877Z,39.92
